sensor_id;sensor_type;location;lat;lon;timestamp;pressure;altitude;pressure_sealevel;temperature;humidity
27980;BME280;15315;50.836;4.430;2022-11-18T00:04:24;98977.44;;;12.12;100.00
27980;BME280;15315;50.836;4.430;2022-11-18T00:14:25;98987.72;;;12.09;100.00
27980;BME280;15315;50.836;4.430;2022-11-18T00:24:26;98993.16;;;12.43;100.00
27980;BME280;15315;50.836;4.430;2022-11-18T00:34:27;99004.75;;;12.61;100.00
27980;BME280;15315;50.836;4.430;2022-11-18T00:44:27;99003.72;;;13.04;100.00
27980;BME280;15315;50.836;4.430;2022-11-18T00:54:28;99032.91;;;12.92;100.00
27980;BME280;15315;50.836;4.430;2022-11-18T01:04:28;99036.66;;;12.91;100.00
27980;BME280;15315;50.836;4.430;2022-11-18T01:14:29;99047.88;;;12.45;100.00
27980;BME280;15315;50.836;4.430;2022-11-18T01:24:30;99070.69;;;12.68;100.00
27980;BME280;15315;50.836;4.430;2022-11-18T01:34:31;99079.78;;;12.67;100.00
27980;BME280;15315;50.836;4.430;2022-11-18T01:55:14;99098.41;;;12.70;100.00
27980;BME280;15315;50.836;4.430;2022-11-18T02:05:17;99113.66;;;12.53;100.00
27980;BME280;15315;50.836;4.430;2022-11-18T02:15:33;99116.47;;;12.69;100.00
27980;BME280;15315;50.836;4.430;2022-11-18T02:26:05;99139.53;;;12.56;100.00
27980;BME280;15315;50.836;4.430;2022-11-18T02:46:25;99148.41;;;12.22;100.00
27980;BME280;15315;50.836;4.430;2022-11-18T02:56:27;99168.56;;;12.36;100.00
27980;BME280;15315;50.836;4.430;2022-11-18T03:16:37;99195.09;;;12.32;100.00
27980;BME280;15315;50.836;4.430;2022-11-18T03:26:45;99202.09;;;12.25;100.00
27980;BME280;15315;50.836;4.430;2022-11-18T03:36:50;99212.75;;;12.27;100.00
27980;BME280;15315;50.836;4.430;2022-11-18T03:46:54;99230.91;;;12.34;100.00
27980;BME280;15315;50.836;4.430;2022-11-18T03:57:02;99239.09;;;12.43;100.00
27980;BME280;15315;50.836;4.430;2022-11-18T04:17:17;99270.19;;;12.11;100.00
27980;BME280;15315;50.836;4.430;2022-11-18T04:27:19;99268.47;;;12.10;100.00
27980;BME280;15315;50.836;4.430;2022-11-18T04:37:19;99283.16;;;11.81;100.00
27980;BME280;15315;50.836;4.430;2022-11-18T04:47:19;99278.50;;;12.00;100.00
27980;BME280;15315;50.836;4.430;2022-11-18T04:57:20;99287.53;;;11.82;100.00
27980;BME280;15315;50.836;4.430;2022-11-18T05:07:20;99307.69;;;11.87;100.00
27980;BME280;15315;50.836;4.430;2022-11-18T05:17:21;99330.50;;;11.75;100.00
27980;BME280;15315;50.836;4.430;2022-11-18T05:27:21;99343.16;;;11.74;100.00
27980;BME280;15315;50.836;4.430;2022-11-18T05:37:21;99341.59;;;11.16;100.00
27980;BME280;15315;50.836;4.430;2022-11-18T05:47:22;99364.63;;;10.72;100.00
27980;BME280;15315;50.836;4.430;2022-11-18T05:57:24;99362.94;;;10.81;100.00
27980;BME280;15315;50.836;4.430;2022-11-18T06:07:30;99368.03;;;10.55;100.00
27980;BME280;15315;50.836;4.430;2022-11-18T06:17:46;99387.91;;;11.02;100.00
27980;BME280;15315;50.836;4.430;2022-11-18T06:27:49;99394.97;;;11.03;100.00
27980;BME280;15315;50.836;4.430;2022-11-18T06:37:51;99408.19;;;11.06;100.00
27980;BME280;15315;50.836;4.430;2022-11-18T06:47:55;99425.63;;;10.73;100.00
27980;BME280;15315;50.836;4.430;2022-11-18T06:57:56;99444.34;;;11.42;100.00
27980;BME280;15315;50.836;4.430;2022-11-18T07:07:56;99455.13;;;11.70;100.00
27980;BME280;15315;50.836;4.430;2022-11-18T07:17:56;99460.22;;;11.83;100.00
27980;BME280;15315;50.836;4.430;2022-11-18T07:27:57;99479.72;;;12.14;100.00
27980;BME280;15315;50.836;4.430;2022-11-18T07:37:58;99483.16;;;12.06;100.00
27980;BME280;15315;50.836;4.430;2022-11-18T07:47:58;99500.03;;;11.81;100.00
27980;BME280;15315;50.836;4.430;2022-11-18T07:57:59;99521.19;;;11.86;100.00
27980;BME280;15315;50.836;4.430;2022-11-18T08:07:59;99536.25;;;11.59;100.00
27980;BME280;15315;50.836;4.430;2022-11-18T08:18:00;99544.91;;;11.92;100.00
27980;BME280;15315;50.836;4.430;2022-11-18T08:28:00;99553.06;;;11.53;100.00
27980;BME280;15315;50.836;4.430;2022-11-18T08:38:00;99548.19;;;11.38;100.00
27980;BME280;15315;50.836;4.430;2022-11-18T08:48:01;99557.97;;;11.77;100.00
27980;BME280;15315;50.836;4.430;2022-11-18T08:58:01;99573.75;;;11.72;100.00
27980;BME280;15315;50.836;4.430;2022-11-18T09:08:02;99583.97;;;11.40;100.00
27980;BME280;15315;50.836;4.430;2022-11-18T09:18:02;99598.91;;;12.01;100.00
27980;BME280;15315;50.836;4.430;2022-11-18T09:28:02;99613.53;;;11.80;100.00
27980;BME280;15315;50.836;4.430;2022-11-18T09:38:03;99618.91;;;12.18;100.00
27980;BME280;15315;50.836;4.430;2022-11-18T09:48:16;99630.47;;;12.01;100.00
27980;BME280;15315;50.836;4.430;2022-11-18T09:58:21;99650.44;;;12.56;100.00
27980;BME280;15315;50.836;4.430;2022-11-18T10:08:32;99657.94;;;13.08;100.00
27980;BME280;15315;50.836;4.430;2022-11-18T10:29:02;99669.28;;;13.76;100.00
27980;BME280;15315;50.836;4.430;2022-11-18T10:39:09;99671.72;;;13.15;100.00
27980;BME280;15315;50.836;4.430;2022-11-18T10:59:20;99679.91;;;13.59;100.00
27980;BME280;15315;50.836;4.430;2022-11-18T11:09:28;99694.84;;;13.09;100.00
27980;BME280;15315;50.836;4.430;2022-11-18T11:19:38;99691.84;;;13.84;100.00
27980;BME280;15315;50.836;4.430;2022-11-18T12:00:29;99720.53;;;13.59;100.00
27980;BME280;15315;50.836;4.430;2022-11-18T12:31:47;99717.41;;;14.70;100.00
27980;BME280;15315;50.836;4.430;2022-11-18T12:41:58;99725.31;;;13.93;100.00
27980;BME280;15315;50.836;4.430;2022-11-18T13:02:30;99719.19;;;14.44;100.00
27980;BME280;15315;50.836;4.430;2022-11-18T13:12:31;99736.94;;;14.56;100.00
27980;BME280;15315;50.836;4.430;2022-11-18T13:22:32;99735.59;;;14.77;100.00
27980;BME280;15315;50.836;4.430;2022-11-18T13:32:53;99731.91;;;14.87;100.00
27980;BME280;15315;50.836;4.430;2022-11-18T13:42:56;99738.13;;;14.79;100.00
27980;BME280;15315;50.836;4.430;2022-11-18T14:03:10;99744.56;;;14.52;100.00
27980;BME280;15315;50.836;4.430;2022-11-18T14:13:27;99746.44;;;14.77;100.00
27980;BME280;15315;50.836;4.430;2022-11-18T14:23:33;99747.75;;;15.25;100.00
27980;BME280;15315;50.836;4.430;2022-11-18T14:33:35;99759.59;;;14.90;100.00
27980;BME280;15315;50.836;4.430;2022-11-18T14:43:35;99762.25;;;15.08;100.00
27980;BME280;15315;50.836;4.430;2022-11-18T14:53:36;99758.53;;;14.83;100.00
27980;BME280;15315;50.836;4.430;2022-11-18T15:03:36;99774.66;;;15.10;100.00
27980;BME280;15315;50.836;4.430;2022-11-18T15:13:38;99783.06;;;14.99;100.00
27980;BME280;15315;50.836;4.430;2022-11-18T15:23:38;99787.13;;;14.95;100.00
27980;BME280;15315;50.836;4.430;2022-11-18T15:33:39;99771.66;;;14.70;100.00
27980;BME280;15315;50.836;4.430;2022-11-18T15:43:39;99805.78;;;14.28;100.00
27980;BME280;15315;50.836;4.430;2022-11-18T15:53:40;99815.03;;;14.88;100.00
27980;BME280;15315;50.836;4.430;2022-11-18T16:03:40;99816.28;;;14.58;100.00
27980;BME280;15315;50.836;4.430;2022-11-18T16:13:41;99822.94;;;14.46;100.00
27980;BME280;15315;50.836;4.430;2022-11-18T16:23:41;99838.69;;;13.51;100.00
27980;BME280;15315;50.836;4.430;2022-11-18T16:33:41;99848.50;;;12.86;100.00
27980;BME280;15315;50.836;4.430;2022-11-18T16:43:42;99856.56;;;14.08;100.00
27980;BME280;15315;50.836;4.430;2022-11-18T16:53:42;99864.34;;;13.93;100.00
27980;BME280;15315;50.836;4.430;2022-11-18T17:03:43;99866.66;;;13.88;100.00
27980;BME280;15315;50.836;4.430;2022-11-18T17:13:43;99877.16;;;14.01;100.00
27980;BME280;15315;50.836;4.430;2022-11-18T17:23:44;99897.03;;;14.19;100.00
27980;BME280;15315;50.836;4.430;2022-11-18T17:33:46;99913.38;;;14.00;100.00
27980;BME280;15315;50.836;4.430;2022-11-18T17:43:46;99926.09;;;14.27;100.00
27980;BME280;15315;50.836;4.430;2022-11-18T17:53:47;99933.44;;;13.70;100.00
27980;BME280;15315;50.836;4.430;2022-11-18T18:03:48;99940.25;;;14.20;100.00
27980;BME280;15315;50.836;4.430;2022-11-18T18:13:48;99956.81;;;13.81;100.00
27980;BME280;15315;50.836;4.430;2022-11-18T18:24:08;99957.50;;;14.19;100.00
27980;BME280;15315;50.836;4.430;2022-11-18T18:34:09;99971.50;;;14.42;100.00
27980;BME280;15315;50.836;4.430;2022-11-18T18:44:09;99977.22;;;14.76;100.00
27980;BME280;15315;50.836;4.430;2022-11-18T18:54:14;99990.94;;;14.74;100.00
27980;BME280;15315;50.836;4.430;2022-11-18T19:04:16;100009.63;;;14.50;100.00
27980;BME280;15315;50.836;4.430;2022-11-18T19:14:18;100006.13;;;13.84;100.00
27980;BME280;15315;50.836;4.430;2022-11-18T19:24:18;100017.53;;;14.24;100.00
27980;BME280;15315;50.836;4.430;2022-11-18T19:34:19;100015.97;;;13.85;100.00
27980;BME280;15315;50.836;4.430;2022-11-18T19:44:19;100032.31;;;14.03;100.00
27980;BME280;15315;50.836;4.430;2022-11-18T19:54:19;100039.63;;;13.74;100.00
27980;BME280;15315;50.836;4.430;2022-11-18T20:04:20;100051.06;;;13.77;100.00
27980;BME280;15315;50.836;4.430;2022-11-18T20:14:20;100055.75;;;13.37;100.00
27980;BME280;15315;50.836;4.430;2022-11-18T20:24:21;100062.00;;;13.28;100.00
27980;BME280;15315;50.836;4.430;2022-11-18T20:34:21;100061.13;;;13.18;100.00
27980;BME280;15315;50.836;4.430;2022-11-18T20:44:22;100065.13;;;13.14;100.00
27980;BME280;15315;50.836;4.430;2022-11-18T20:54:22;100068.84;;;13.41;100.00
27980;BME280;15315;50.836;4.430;2022-11-18T21:04:22;100067.75;;;13.53;100.00
27980;BME280;15315;50.836;4.430;2022-11-18T21:14:23;100096.13;;;13.00;100.00
27980;BME280;15315;50.836;4.430;2022-11-18T21:24:30;100098.97;;;13.67;100.00
27980;BME280;15315;50.836;4.430;2022-11-18T21:34:30;100105.66;;;13.53;100.00
27980;BME280;15315;50.836;4.430;2022-11-18T21:44:31;100107.44;;;13.24;100.00
27980;BME280;15315;50.836;4.430;2022-11-18T21:54:31;100118.41;;;13.32;100.00
27980;BME280;15315;50.836;4.430;2022-11-18T22:04:34;100112.78;;;13.74;100.00
27980;BME280;15315;50.836;4.430;2022-11-18T22:14:52;100117.06;;;13.95;100.00
27980;BME280;15315;50.836;4.430;2022-11-18T22:24:53;100126.06;;;13.96;100.00
27980;BME280;15315;50.836;4.430;2022-11-18T22:34:53;100132.31;;;13.58;100.00
27980;BME280;15315;50.836;4.430;2022-11-18T22:44:53;100143.44;;;13.15;100.00
27980;BME280;15315;50.836;4.430;2022-11-18T22:54:54;100139.78;;;13.26;100.00
27980;BME280;15315;50.836;4.430;2022-11-18T23:04:54;100150.22;;;12.90;100.00
27980;BME280;15315;50.836;4.430;2022-11-18T23:14:55;100161.84;;;13.12;100.00
27980;BME280;15315;50.836;4.430;2022-11-18T23:24:55;100174.69;;;13.29;100.00
27980;BME280;15315;50.836;4.430;2022-11-18T23:34:55;100188.97;;;12.91;100.00
27980;BME280;15315;50.836;4.430;2022-11-18T23:44:56;100200.44;;;12.83;100.00
27980;BME280;15315;50.836;4.430;2022-11-18T23:54:56;100193.41;;;12.30;100.00
